Skawa — A8ZR3 — position and weather

sailwx.info

Track history (hours):
 
Tides and Currents Weather Stations Pressure Air Temp Water Temp Dewpoint Dewpoint Depression Visibility Wind Speed Wind Dir Waves Ship Positions

Skawa

Last reported at 2018-Jun-17 04:22 UTC. Time now 2018-Jul-16 14:28 UTC.
Position N 46°50' W 071°10'.
Warning: this ship's position is 29 days out of date.

Length 150 m; draft 8.1 m.

Type: Cargo ship. MMSI: 636015278.

Date/timePositionNaut miles runAvg speedWind from/ knotsBaromVisibWave heightAir tempDewpointWater temp
2018-Jun-17 04:22N 46°50' W 071°10'9212.1
2018-Jun-16 20:47N 46°04' W 073°04'413.0
2018-Jun-16 20:30N 46°03' W 073°09'714.3
2018-Jun-16 20:00N 45°56' W 073°13'713.8
2018-Jun-16 19:30N 45°50' W 073°17'21 1.3
2018-Jun-16 03:09N 45°32' W 073°32'2 7.2
2018-Jun-16 02:55N 45°30' W 073°31'1 1.4
2018-Jun-16 02:30N 45°30' W 073°31'0 0.9
2018-Jun-16 02:00N 45°29' W 073°31'2 4.5
2018-Jun-16 01:31N 45°27' W 073°30'3 5.8
2018-Jun-16 01:01N 45°24' W 073°32'1 2.7
2018-Jun-16 00:31N 45°24' W 073°34'1 1.7
2018-Jun-16 00:00N 45°24' W 073°35'3 5.5
2018-Jun-15 23:27N 45°25' W 073°39'3 6.1
2018-Jun-15 23:00N 45°24' W 073°43'612.0
2018-Jun-15 22:30N 45°21' W 073°51'4 7.4
2018-Jun-15 21:59N 45°19' W 073°55'1 1.5
2018-Jun-15 21:30N 45°18' W 073°56'0 0.6
2018-Jun-15 21:00N 45°18' W 073°56'5 4.4
2018-Jun-15 19:49N 45°14' W 074°00'5 9.5
2018-Jun-15 19:19N 45°14' W 074°07'  
Track history (hours):
 
Tides and Currents Weather Stations Pressure Air Temp Water Temp Dewpoint Dewpoint Depression Visibility Wind Speed Wind Dir Waves Ship Positions

Skawa

Last reported at 2018-Jun-17 04:22 UTC. Time now 2018-Jul-16 14:28 UTC.
Position N 46°50' W 071°10'.
Warning: this ship's position is 29 days out of date.

Length 150 m; draft 8.1 m.

Type: Cargo ship. MMSI: 636015278.

Date/timePositionNaut miles runAvg speedWind from/ knotsBaromVisibWave heightAir tempDewpointWater temp
2018-Jun-17 04:22N 46°50' W 071°10'9212.1
2018-Jun-16 20:47N 46°04' W 073°04'413.0
2018-Jun-16 20:30N 46°03' W 073°09'714.3
2018-Jun-16 20:00N 45°56' W 073°13'713.8
2018-Jun-16 19:30N 45°50' W 073°17'21 1.3
2018-Jun-16 03:09N 45°32' W 073°32'2 7.2
2018-Jun-16 02:55N 45°30' W 073°31'1 1.4
2018-Jun-16 02:30N 45°30' W 073°31'0 0.9
2018-Jun-16 02:00N 45°29' W 073°31'2 4.5
2018-Jun-16 01:31N 45°27' W 073°30'3 5.8
2018-Jun-16 01:01N 45°24' W 073°32'1 2.7
2018-Jun-16 00:31N 45°24' W 073°34'1 1.7
2018-Jun-16 00:00N 45°24' W 073°35'3 5.5
2018-Jun-15 23:27N 45°25' W 073°39'3 6.1
2018-Jun-15 23:00N 45°24' W 073°43'612.0
2018-Jun-15 22:30N 45°21' W 073°51'4 7.4
2018-Jun-15 21:59N 45°19' W 073°55'1 1.5
2018-Jun-15 21:30N 45°18' W 073°56'0 0.6
2018-Jun-15 21:00N 45°18' W 073°56'5 4.4
2018-Jun-15 19:49N 45°14' W 074°00'5 9.5
2018-Jun-15 19:19N 45°14' W 074°07'  

Dump ship's entire track history